Time;durP1;ratioP1;P1;durP2;ratioP2;P2;SDS_P1;SDS_P2;PMS_P1;PMS_P2;Temp;Humidity;BMP_temperature;BMP_pressure;BME280_temperature;BME280_humidity;BME280_pressure;Samples;Min_cycle;Max_cycle;Signal;HPM_P1;HPM_P2
2021/12/08 00:01:05;;;;;;;2.97;1.90;;;;;;;;;;4946401;28;20035;-71
2021/12/08 00:03:30;;;;;;;1.70;1.60;;;;;;;;;;4947395;28;20118;-71
2021/12/08 00:05:56;;;;;;;1.58;1.48;;;;;;;;;;4947781;28;20463;-71
2021/12/08 00:08:21;;;;;;;2.50;1.73;;;;;;;;;;4945161;28;20031;-71
2021/12/08 00:13:22;;;;;;;2.22;1.70;;;;;;;;;;4948152;29;20023;-71
2021/12/08 00:15:52;;;;;;;1.77;1.50;;;;;;;;;;4947553;28;20031;-70
2021/12/08 00:18:24;;;;;;;3.13;1.70;;;;;;;;;;4947176;28;20059;-71
2021/12/08 00:20:51;;;;;;;2.05;1.40;;;;;;;;;;4947787;28;20088;-71
2021/12/08 00:23:16;;;;;;;4.18;1.50;;;;;;;;;;4948076;28;20050;-71
2021/12/08 00:25:42;;;;;;;5.25;1.60;;;;;;;;;;4962445;28;20688;-71
2021/12/08 00:28:07;;;;;;;2.42;2.00;;;;;;;;;;4948614;28;20019;-71
2021/12/08 00:30:33;;;;;;;5.85;1.83;;;;;;;;;;4944318;28;20047;-71
2021/12/08 00:32:59;;;;;;;2.58;1.95;;;;;;;;;;4946246;28;20035;-71
2021/12/08 00:35:24;;;;;;;5.38;1.80;;;;;;;;;;4948391;28;20023;-71
2021/12/08 00:37:50;;;;;;;2.50;2.17;;;;;;;;;;4948144;29;20508;-70
2021/12/08 00:40:16;;;;;;;3.25;2.10;;;;;;;;;;4947286;29;20113;-71
2021/12/08 00:42:42;;;;;;;2.90;1.90;;;;;;;;;;4930353;29;20483;-70
2021/12/08 00:45:09;;;;;;;2.35;2.05;;;;;;;;;;4949131;28;20039;-71
2021/12/08 00:47:34;;;;;;;3.13;2.00;;;;;;;;;;4949029;29;20027;-71
2021/12/08 00:49:59;;;;;;;3.05;2.00;;;;;;;;;;4950067;28;20035;-71
2021/12/08 00:52:28;;;;;;;1.92;1.75;;;;;;;;;;4951815;28;20023;-71
2021/12/08 00:54:54;;;;;;;3.92;2.50;;;;;;;;;;4951565;28;20078;-70
2021/12/08 00:57:19;;;;;;;2.97;2.40;;;;;;;;;;4950211;29;20058;-71
2021/12/08 00:59:45;;;;;;;2.30;1.80;;;;;;;;;;4950166;28;20939;-71
2021/12/08 01:02:10;;;;;;;2.20;2.00;;;;;;;;;;4949581;28;20560;-71
2021/12/08 01:04:35;;;;;;;4.18;1.90;;;;;;;;;;4950384;29;20129;-71
2021/12/08 01:07:02;;;;;;;3.15;1.92;;;;;;;;;;4949363;28;20126;-71
2021/12/08 01:09:27;;;;;;;2.80;1.77;;;;;;;;;;4951493;28;20418;-70
2021/12/08 01:11:54;;;;;;;2.60;2.17;;;;;;;;;;4947848;28;20027;-71
2021/12/08 01:14:19;;;;;;;2.55;1.70;;;;;;;;;;4948044;29;20494;-70
2021/12/08 01:16:45;;;;;;;1.92;1.80;;;;;;;;;;4948885;28;20023;-71
2021/12/08 01:19:10;;;;;;;2.50;1.35;;;;;;;;;;4951303;28;20118;-71
2021/12/08 01:24:03;;;;;;;3.45;1.60;;;;;;;;;;4968463;28;20043;-72
2021/12/08 01:26:28;;;;;;;4.88;2.78;;;;;;;;;;4969417;28;20448;-72
2021/12/08 01:28:57;;;;;;;6.70;3.88;;;;;;;;;;4953554;28;20133;-74
2021/12/08 01:31:23;;;;;;;11.45;5.88;;;;;;;;;;4990974;28;20084;-73
2021/12/08 01:33:49;;;;;;;10.98;5.25;;;;;;;;;;4976934;28;20057;-72
2021/12/08 01:36:14;;;;;;;11.82;5.63;;;;;;;;;;5010964;28;20054;-73
2021/12/08 01:38:39;;;;;;;9.25;5.72;;;;;;;;;;5010579;28;20049;-72
2021/12/08 01:41:05;;;;;;;12.50;5.47;;;;;;;;;;5009498;28;20025;-72
2021/12/08 01:43:41;;;;;;;12.50;5.20;;;;;;;;;;5009833;28;20025;-73
2021/12/08 01:46:08;;;;;;;12.88;5.28;;;;;;;;;;4994568;28;20101;-73
2021/12/08 01:48:35;;;;;;;9.63;5.00;;;;;;;;;;5009979;28;20029;-72
2021/12/08 01:51:19;;;;;;;8.10;4.55;;;;;;;;;;5009226;28;20032;-73
2021/12/08 01:53:49;;;;;;;12.02;4.70;;;;;;;;;;5009243;28;20439;-72
2021/12/08 01:56:15;;;;;;;5.85;4.05;;;;;;;;;;5006256;28;20061;-72
2021/12/08 01:58:40;;;;;;;9.43;4.35;;;;;;;;;;5009182;28;20084;-72
2021/12/08 02:01:10;;;;;;;5.18;3.70;;;;;;;;;;5016229;28;20042;-73
2021/12/08 02:03:36;;;;;;;7.32;4.68;;;;;;;;;;5022672;28;20533;-73
2021/12/08 02:06:03;;;;;;;7.15;3.40;;;;;;;;;;5024590;28;20030;-72
2021/12/08 02:08:28;;;;;;;5.40;3.60;;;;;;;;;;5021635;28;20098;-73
2021/12/08 02:10:53;;;;;;;6.13;3.67;;;;;;;;;;5017454;28;20030;-72
2021/12/08 02:13:19;;;;;;;4.78;3.63;;;;;;;;;;5008310;28;20034;-72
2021/12/08 02:15:44;;;;;;;5.80;3.55;;;;;;;;;;5010415;28;20026;-73
2021/12/08 02:18:11;;;;;;;3.47;3.15;;;;;;;;;;4993652;28;20026;-71
2021/12/08 02:20:37;;;;;;;7.50;3.58;;;;;;;;;;5008325;28;20650;-73
2021/12/08 02:23:02;;;;;;;7.90;3.85;;;;;;;;;;5005948;28;20117;-72
2021/12/08 02:25:28;;;;;;;5.10;3.20;;;;;;;;;;5007054;28;20046;-72
2021/12/08 02:27:55;;;;;;;5.95;3.42;;;;;;;;;;5006517;28;20040;-73
2021/12/08 02:48:53;;;;;;;5.25;3.50;;;;;;;;;;5006922;28;20091;-72
2021/12/08 02:51:20;;;;;;;6.32;3.50;;;;;;;;;;5014462;28;20038;-72
2021/12/08 02:53:47;;;;;;;5.35;3.47;;;;;;;;;;5009337;28;20033;-72
2021/12/08 02:56:12;;;;;;;9.45;3.75;;;;;;;;;;5012991;28;20036;-72
2021/12/08 02:58:38;;;;;;;8.32;3.63;;;;;;;;;;5012095;28;20033;-72
2021/12/08 03:01:03;;;;;;;5.95;4.20;;;;;;;;;;4995211;28;20075;-74
2021/12/08 03:03:29;;;;;;;7.53;3.60;;;;;;;;;;5004964;28;20118;-72
2021/12/08 03:05:54;;;;;;;10.70;4.03;;;;;;;;;;5013781;28;20061;-72
2021/12/08 03:08:19;;;;;;;4.22;3.08;;;;;;;;;;4994481;28;20057;-73
2021/12/08 03:10:46;;;;;;;6.07;2.92;;;;;;;;;;5016325;28;20028;-72
2021/12/08 03:13:11;;;;;;;4.72;3.35;;;;;;;;;;4996747;28;20695;-72
2021/12/08 03:15:37;;;;;;;5.32;3.38;;;;;;;;;;5012717;28;20107;-72
2021/12/08 03:18:02;;;;;;;5.70;3.17;;;;;;;;;;5008928;28;20515;-73
2021/12/08 03:20:38;;;;;;;4.45;3.28;;;;;;;;;;5014431;28;20033;-72
2021/12/08 03:23:06;;;;;;;6.80;3.45;;;;;;;;;;5013978;28;20057;-72
2021/12/08 03:25:37;;;;;;;4.88;3.05;;;;;;;;;;5002317;28;20052;-73
2021/12/08 03:28:05;;;;;;;6.45;3.72;;;;;;;;;;5012922;28;20026;-73
2021/12/08 03:30:37;;;;;;;6.43;3.75;;;;;;;;;;4996668;28;20049;-72
2021/12/08 03:33:02;;;;;;;8.45;3.75;;;;;;;;;;5012137;28;20049;-72
2021/12/08 03:35:28;;;;;;;5.20;3.38;;;;;;;;;;5013192;28;20061;-72
2021/12/08 03:37:53;;;;;;;6.30;3.83;;;;;;;;;;5009039;28;20032;-72
2021/12/08 03:40:21;;;;;;;6.72;3.30;;;;;;;;;;5011549;28;20368;-72
2021/12/08 03:42:47;;;;;;;6.35;3.67;;;;;;;;;;5009232;28;20025;-72
2021/12/08 03:45:17;;;;;;;9.32;3.97;;;;;;;;;;5011841;28;20101;-72
2021/12/08 03:47:43;;;;;;;4.53;3.10;;;;;;;;;;5003352;28;20087;-73
2021/12/08 03:50:12;;;;;;;5.38;3.60;;;;;;;;;;5012970;28;20030;-72
2021/12/08 03:52:38;;;;;;;7.00;3.50;;;;;;;;;;5012202;28;20387;-72
2021/12/08 03:55:05;;;;;;;7.03;3.90;;;;;;;;;;4997118;28;20036;-76
2021/12/08 03:57:30;;;;;;;6.82;3.80;;;;;;;;;;4995344;28;20025;-73
2021/12/08 03:59:55;;;;;;;6.95;3.67;;;;;;;;;;5010781;28;20113;-72
2021/12/08 04:02:21;;;;;;;6.13;3.53;;;;;;;;;;4997668;28;20049;-73
2021/12/08 04:04:50;;;;;;;5.05;3.30;;;;;;;;;;5009443;28;20117;-72
2021/12/08 04:07:16;;;;;;;5.13;3.40;;;;;;;;;;5004231;28;20026;-74
2021/12/08 04:09:43;;;;;;;6.15;3.40;;;;;;;;;;5017514;28;20033;-73
2021/12/08 04:12:12;;;;;;;6.55;3.30;;;;;;;;;;5007825;28;20455;-72
2021/12/08 04:14:41;;;;;;;4.43;3.08;;;;;;;;;;5002029;28;20030;-72
2021/12/08 04:17:28;;;;;;;4.25;3.00;;;;;;;;;;5006759;28;20117;-72
2021/12/08 04:19:53;;;;;;;3.30;2.25;;;;;;;;;;5020457;28;20117;-72
2021/12/08 04:22:22;;;;;;;5.07;2.90;;;;;;;;;;5013987;28;20038;-72
2021/12/08 04:24:48;;;;;;;3.50;2.47;;;;;;;;;;5016263;28;20044;-72
2021/12/08 04:27:26;;;;;;;4.07;2.67;;;;;;;;;;5032612;28;20029;-72
2021/12/08 04:29:51;;;;;;;4.82;3.08;;;;;;;;;;5013510;28;20056;-73
2021/12/08 04:32:19;;;;;;;3.33;2.53;;;;;;;;;;5013109;28;20041;-72
2021/12/08 04:34:49;;;;;;;4.82;2.70;;;;;;;;;;5013041;28;20057;-73
2021/12/08 04:37:22;;;;;;;4.65;2.60;;;;;;;;;;5008650;28;20059;-72
2021/12/08 04:45:32;;;;;;;4.43;2.88;;;;;;;;;;5011984;28;20084;-73
2021/12/08 04:50:50;;;;;;;;;;;;;;;;;;5015548;28;20056;-71
2021/12/08 05:06:44;;;;;;;5.43;1.90;;;;;;;;;;5013098;28;20540;-72
2021/12/08 05:09:24;;;;;;;2.85;2.03;;;;;;;;;;5011305;28;20487;-72
2021/12/08 05:11:52;;;;;;;2.88;1.77;;;;;;;;;;4994860;28;20034;-71
2021/12/08 05:14:23;;;;;;;2.05;1.58;;;;;;;;;;5010070;28;20029;-72
2021/12/08 05:16:55;;;;;;;3.17;1.90;;;;;;;;;;5012780;28;20026;-71
2021/12/08 05:19:22;;;;;;;2.22;2.00;;;;;;;;;;5008417;28;20041;-71
2021/12/08 05:21:54;;;;;;;3.53;1.88;;;;;;;;;;5011253;28;20285;-71
2021/12/08 05:24:23;;;;;;;6.43;1.85;;;;;;;;;;5007449;28;20021;-71
2021/12/08 05:26:52;;;;;;;6.20;2.60;;;;;;;;;;5006099;28;20080;-72
2021/12/08 05:29:39;;;;;;;2.28;1.85;;;;;;;;;;5008932;28;20072;-71
2021/12/08 05:32:05;;;;;;;3.10;2.20;;;;;;;;;;5023624;28;20104;-71
2021/12/08 05:34:30;;;;;;;2.65;2.22;;;;;;;;;;5027649;28;20075;-71
2021/12/08 05:36:56;;;;;;;2.83;2.20;;;;;;;;;;5028231;28;20469;-70
2021/12/08 05:39:22;;;;;;;4.72;2.28;;;;;;;;;;5023610;28;20036;-72
2021/12/08 05:41:50;;;;;;;2.42;2.10;;;;;;;;;;5029871;28;20029;-71
2021/12/08 05:44:15;;;;;;;4.82;2.40;;;;;;;;;;5025830;28;20032;-72
2021/12/08 05:46:42;;;;;;;3.35;2.50;;;;;;;;;;5026240;28;20411;-71
2021/12/08 05:49:12;;;;;;;3.40;2.20;;;;;;;;;;5025988;28;20502;-72
2021/12/08 05:51:37;;;;;;;6.32;3.25;;;;;;;;;;5017316;28;20443;-71
2021/12/08 05:54:11;;;;;;;4.85;2.70;;;;;;;;;;5013032;28;20100;-71
2021/12/08 05:56:36;;;;;;;3.95;2.20;;;;;;;;;;5013484;28;20045;-72
2021/12/08 05:59:02;;;;;;;4.65;2.17;;;;;;;;;;5011175;28;20106;-71
2021/12/08 06:01:52;;;;;;;3.50;1.90;;;;;;;;;;5014886;28;20428;-71
2021/12/08 06:04:17;;;;;;;1.50;1.40;;;;;;;;;;5014824;28;20565;-71
2021/12/08 06:06:43;;;;;;;1.83;1.50;;;;;;;;;;5015530;28;20030;-72
2021/12/08 06:09:09;;;;;;;1.80;1.60;;;;;;;;;;5013508;28;20593;-71
2021/12/08 06:11:34;;;;;;;1.58;1.20;;;;;;;;;;5011727;28;20029;-71
2021/12/08 06:14:00;;;;;;;2.00;1.63;;;;;;;;;;5020574;28;20068;-71
2021/12/08 06:16:30;;;;;;;2.90;1.60;;;;;;;;;;5012321;28;20033;-72
2021/12/08 06:18:55;;;;;;;2.53;1.80;;;;;;;;;;5005442;28;20049;-72
2021/12/08 06:21:23;;;;;;;2.10;1.58;;;;;;;;;;4993372;28;20452;-71
2021/12/08 06:23:48;;;;;;;1.58;1.45;;;;;;;;;;5015718;28;20061;-72
2021/12/08 06:26:16;;;;;;;2.58;1.90;;;;;;;;;;5002093;28;20060;-71
2021/12/08 06:28:41;;;;;;;4.80;2.55;;;;;;;;;;5011907;28;20030;-71
2021/12/08 06:31:06;;;;;;;2.78;2.50;;;;;;;;;;5013257;28;20566;-72
2021/12/08 06:33:32;;;;;;;4.63;2.80;;;;;;;;;;5013928;28;20483;-72
2021/12/08 06:36:00;;;;;;;4.47;2.97;;;;;;;;;;5004412;28;20149;-73
2021/12/08 06:38:25;;;;;;;2.92;2.17;;;;;;;;;;5011942;28;20310;-72
2021/12/08 06:41:02;;;;;;;8.18;2.40;;;;;;;;;;5010913;28;20387;-74
2021/12/08 06:43:33;;;;;;;3.22;2.25;;;;;;;;;;5007197;28;20109;-72
2021/12/08 06:45:59;;;;;;;3.33;1.98;;;;;;;;;;5016626;28;20021;-72
2021/12/08 06:48:27;;;;;;;9.77;6.00;;;;;;;;;;5026207;28;20081;-72
2021/12/08 06:51:06;;;;;;;18.65;8.50;;;;;;;;;;5016461;28;20476;-72
2021/12/08 06:53:32;;;;;;;9.75;5.43;;;;;;;;;;5023367;28;20036;-73
2021/12/08 06:56:01;;;;;;;7.38;4.30;;;;;;;;;;5028860;28;20022;-72
2021/12/08 06:58:28;;;;;;;5.68;3.88;;;;;;;;;;4995518;28;20014;-72
2021/12/08 07:01:10;;;;;;;5.07;2.63;;;;;;;;;;5014028;28;20038;-73
2021/12/08 07:04:52;;;;;;;3.38;2.03;;;;;;;;;;5003600;28;20034;-72
2021/12/08 07:09:06;;;;;;;1.95;1.80;;;;;;;;;;5027300;28;20021;-72
2021/12/08 07:11:31;;;;;;;2.72;1.75;;;;;;;;;;5023930;28;20116;-72
2021/12/08 07:13:57;;;;;;;2.75;1.92;;;;;;;;;;5018689;28;20049;-73
2021/12/08 07:16:25;;;;;;;2.80;1.85;;;;;;;;;;5027207;28;20060;-72
2021/12/08 07:19:01;;;;;;;2.67;1.70;;;;;;;;;;5027714;28;20019;-72
2021/12/08 07:21:32;;;;;;;2.70;1.67;;;;;;;;;;5024118;28;20029;-72
2021/12/08 07:24:04;;;;;;;2.67;1.58;;;;;;;;;;5040079;22;20046;-68
2021/12/08 07:26:32;;;;;;;1.85;1.40;;;;;;;;;;5012867;28;20049;-69
2021/12/08 07:28:57;;;;;;;3.22;1.83;;;;;;;;;;5021561;28;20056;-68
2021/12/08 07:31:32;;;;;;;1.90;1.70;;;;;;;;;;5023615;28;20041;-68
2021/12/08 07:34:03;;;;;;;2.15;1.83;;;;;;;;;;5026106;28;20061;-68
2021/12/08 07:36:28;;;;;;;2.70;2.50;;;;;;;;;;5023019;28;20467;-68
2021/12/08 07:38:54;;;;;;;2.58;2.08;;;;;;;;;;5029819;28;20061;-69
2021/12/08 07:41:30;;;;;;;3.35;1.63;;;;;;;;;;5022366;28;20029;-69
2021/12/08 07:43:57;;;;;;;2.55;2.17;;;;;;;;;;5020629;28;20037;-68
2021/12/08 07:46:27;;;;;;;5.70;2.72;;;;;;;;;;5010998;28;20033;-69
2021/12/08 07:48:59;;;;;;;4.75;3.03;;;;;;;;;;5009951;28;20444;-68
2021/12/08 07:51:28;;;;;;;5.22;3.17;;;;;;;;;;5011410;28;20096;-69
2021/12/08 07:53:54;;;;;;;3.50;2.50;;;;;;;;;;5005940;28;20047;-68
2021/12/08 07:56:22;;;;;;;3.65;2.28;;;;;;;;;;5019196;28;20479;-68
2021/12/08 07:58:51;;;;;;;8.80;2.42;;;;;;;;;;5029061;28;20105;-68
2021/12/08 08:01:23;;;;;;;3.38;2.22;;;;;;;;;;5022996;28;20037;-68
2021/12/08 08:03:48;;;;;;;5.18;2.17;;;;;;;;;;5021115;28;20041;-68
2021/12/08 08:06:26;;;;;;;3.13;1.75;;;;;;;;;;5015677;28;20464;-68
2021/12/08 08:08:51;;;;;;;2.58;1.90;;;;;;;;;;5019429;28;20100;-68
2021/12/08 08:11:23;;;;;;;2.67;1.88;;;;;;;;;;5015051;28;20480;-68
2021/12/08 08:13:48;;;;;;;2.28;1.90;;;;;;;;;;5005824;28;20480;-68
2021/12/08 08:16:16;;;;;;;2.20;2.00;;;;;;;;;;5019972;28;20037;-67
2021/12/08 08:18:50;;;;;;;6.20;2.63;;;;;;;;;;5024030;28;20041;-67
2021/12/08 08:21:19;;;;;;;3.40;2.83;;;;;;;;;;5006394;28;20033;-69
2021/12/08 08:23:44;;;;;;;5.43;2.63;;;;;;;;;;5020008;28;20113;-69
2021/12/08 08:26:10;;;;;;;3.13;2.42;;;;;;;;;;5021944;28;20114;-69
2021/12/08 08:28:36;;;;;;;4.53;2.53;;;;;;;;;;5021980;28;20076;-69
2021/12/08 08:31:08;;;;;;;2.35;1.80;;;;;;;;;;5027864;28;20041;-68
2021/12/08 08:33:35;;;;;;;3.25;2.15;;;;;;;;;;5029394;28;20041;-69
2021/12/08 08:36:04;;;;;;;2.20;2.00;;;;;;;;;;5028665;28;20048;-68
2021/12/08 08:38:33;;;;;;;1.85;1.65;;;;;;;;;;5029036;28;20026;-68
2021/12/08 08:41:05;;;;;;;2.97;2.38;;;;;;;;;;5035481;28;20053;-68
2021/12/08 08:43:31;;;;;;;39.28;18.00;;;;;;;;;;5037927;28;20025;-68
2021/12/08 08:46:08;;;;;;;126.05;44.10;;;;;;;;;;5037658;28;20083;-69
2021/12/08 08:48:43;;;;;;;115.97;41.97;;;;;;;;;;5031685;28;20042;-70
2021/12/08 08:51:08;;;;;;;62.10;24.88;;;;;;;;;;5037619;28;20043;-70
2021/12/08 08:53:35;;;;;;;14.50;7.40;;;;;;;;;;5035740;28;20481;-70
2021/12/08 08:56:07;;;;;;;13.63;6.13;;;;;;;;;;5016535;28;20126;-70
2021/12/08 08:58:33;;;;;;;12.85;5.68;;;;;;;;;;5026129;28;20473;-70
2021/12/08 09:01:13;;;;;;;9.90;4.32;;;;;;;;;;5018247;28;20520;-70
2021/12/08 09:03:39;;;;;;;3.97;2.90;;;;;;;;;;5012488;28;20034;-70
2021/12/08 09:06:07;;;;;;;3.00;2.22;;;;;;;;;;5013686;28;20025;-70
2021/12/08 09:08:33;;;;;;;124.07;5.35;;;;;;;;;;5005931;28;20431;-71
2021/12/08 09:11:01;;;;;;;20.95;3.47;;;;;;;;;;5007156;28;20048;-71
2021/12/08 09:13:34;;;;;;;14.63;3.03;;;;;;;;;;5019030;28;20124;-71
2021/12/08 09:16:07;;;;;;;4.05;2.03;;;;;;;;;;5015514;28;20034;-68
2021/12/08 09:18:54;;;;;;;2.60;1.40;;;;;;;;;;5017642;28;20040;-70
2021/12/08 09:21:29;;;;;;;4.07;3.33;;;;;;;;;;5007706;28;20468;-69
2021/12/08 09:24:06;;;;;;;2.33;1.75;;;;;;;;;;5016130;28;20105;-66
2021/12/08 09:26:33;;;;;;;2.17;1.35;;;;;;;;;;5019870;28;20034;-68
2021/12/08 09:29:02;;;;;;;1.13;1.00;;;;;;;;;;5020361;28;20116;-71
2021/12/08 09:31:37;;;;;;;1.20;1.10;;;;;;;;;;5016084;28;20040;-71
2021/12/08 09:34:17;;;;;;;3.10;1.30;;;;;;;;;;5026392;28;20028;-70
2021/12/08 09:36:49;;;;;;;26.38;3.05;;;;;;;;;;5009388;28;20056;-70
